Coatbridge, United Kingdom
Current Conditions -  °F | °C
As of 3:50 PM on Thursday 27 Nov 2014 (Local Time) from EGPF Reporting Station
Haze Haze  
Wind Chill:   Ceiling: 600
Heat Index:   Visibility: 2.6mi
Dew Point:   Wind: 5mph
Humidity: 93%   Direction: 90°E
Pressure: 29.56"   Gusts: NA
Location:  55.86°N, 4.03°W
Report Text: EGPF 271550Z 09004KT 4300 BR BKN006 OVC014 08/07 Q1001
Loading
Personal Weather Stations






























Interactive Weather Map New forecast layout! Learn more

10-Day Weather Forecast

Advertisements
Track Severe Weather on mobile